Milwaukee, Wisconsin
Traffic Map
Current Weather Conditions
Milwaukee, Wisconsin
Clear
Clear
20°
Feels Like: 20°
Wind Chill: 20° Ceiling: Unl
Heat Index: 20° Visibility: 10mi
Dew Point: 17° Wind: 8mph
Humidity: 84% Direction: 20° (NNE)
Pressure: 30.02in Gusts: 0mph
Raw Report DataKMKE 310252Z 02007KT 10SM CLR 20/17 A3002 RMK AO2 SLP163 T02000172 53002
Traffic Incident Summary
Active as of:
Severity:
Category:
InformationThere was an issue retrieving the traffic information for this location. Please try a different location or try again shortly.
Advertisements
Track Severe Weather on mobile